Time;durP1;ratioP1;P1;durP2;ratioP2;P2;SDS_P1;SDS_P2;PMS_P1;PMS_P2;Temp;Humidity;BMP_temperature;BMP_pressure;BME280_temperature;BME280_humidity;BME280_pressure;Samples;Min_cycle;Max_cycle;Signal;HPM_P1;HPM_P2
2021/10/30 00:02:56;;;;;;;47.95;21.25;;;;;;;5.18;66.55;99160.74;2210244;81;21584;-66
2021/10/30 00:05:58;;;;;;;46.75;22.05;;;;;;;5.13;66.50;99161.34;2210242;81;21028;-66
2021/10/30 00:08:59;;;;;;;48.90;21.77;;;;;;;5.06;66.81;99155.52;2210256;81;21056;-66
2021/10/30 00:12:01;;;;;;;48.87;21.65;;;;;;;4.97;66.85;99151.90;2210017;81;21023;-66
2021/10/30 00:15:02;;;;;;;51.33;23.17;;;;;;;4.97;67.02;99145.40;2210423;81;21091;-66
2021/10/30 00:18:05;;;;;;;49.70;22.42;;;;;;;5.00;66.94;99145.33;2210357;81;20981;-66
2021/10/30 00:21:07;;;;;;;49.23;21.35;;;;;;;4.98;67.15;99145.34;2210233;81;20977;-66
2021/10/30 00:24:08;;;;;;;45.20;20.68;;;;;;;5.01;67.11;99140.07;2210083;81;21032;-66
2021/10/30 00:27:12;;;;;;;45.23;20.37;;;;;;;4.99;67.20;99143.16;2210227;81;21532;-66
2021/10/30 00:30:13;;;;;;;48.40;20.48;;;;;;;4.95;67.34;99139.41;2188846;81;21020;-66
2021/10/30 00:33:14;;;;;;;49.58;21.73;;;;;;;5.00;67.32;99140.13;2210354;81;21000;-66
2021/10/30 00:36:16;;;;;;;43.02;20.55;;;;;;;4.99;67.41;99141.02;2210316;81;21530;-66
2021/10/30 00:39:17;;;;;;;48.23;21.12;;;;;;;5.02;67.36;99137.84;2210358;81;21020;-66
2021/10/30 00:42:19;;;;;;;48.53;22.43;;;;;;;5.07;67.33;99138.15;2210443;81;21514;-66
2021/10/30 00:45:20;;;;;;;46.37;20.80;;;;;;;5.17;67.16;99144.30;2210205;81;21744;-66
2021/10/30 00:48:22;;;;;;;43.55;20.60;;;;;;;5.24;66.92;99150.13;2210209;81;21587;-66
2021/10/30 00:51:23;;;;;;;43.65;19.73;;;;;;;5.28;66.68;99151.73;2210209;81;21016;-66
2021/10/30 00:54:25;;;;;;;44.75;19.95;;;;;;;5.14;65.93;99151.34;2210163;81;21028;-66
2021/10/30 00:57:26;;;;;;;45.70;20.97;;;;;;;4.78;65.92;99151.66;2210443;81;20969;-66
2021/10/30 01:00:28;;;;;;;46.25;21.20;;;;;;;4.63;66.66;99154.30;2210333;81;21024;-66
2021/10/30 01:03:32;;;;;;;47.60;21.20;;;;;;;4.58;67.10;99153.58;2210137;81;21072;-66
2021/10/30 01:06:33;;;;;;;45.88;21.17;;;;;;;4.54;67.36;99151.97;2188799;81;20984;-66
2021/10/30 01:09:34;;;;;;;47.27;20.20;;;;;;;4.48;67.47;99146.52;2210341;81;21032;-66
2021/10/30 01:12:35;;;;;;;54.35;20.97;;;;;;;4.45;67.53;99140.99;2210216;80;20993;-66
2021/10/30 01:15:37;;;;;;;45.40;20.52;;;;;;;4.40;67.82;99149.36;2210207;81;21108;-66
2021/10/30 01:18:39;;;;;;;44.48;20.50;;;;;;;4.41;67.95;99139.38;2210059;81;21610;-66
2021/10/30 01:21:41;;;;;;;43.50;20.48;;;;;;;4.46;68.04;99147.03;2210474;81;21056;-66
2021/10/30 01:24:42;;;;;;;50.05;20.82;;;;;;;4.53;67.05;99146.40;2210255;81;21479;-66
2021/10/30 01:27:44;;;;;;;48.33;21.85;;;;;;;4.32;67.38;99142.24;2210322;81;20956;-66
2021/10/30 01:30:45;;;;;;;47.55;20.45;;;;;;;4.12;67.10;99142.84;2210319;81;21015;-66
2021/10/30 01:33:47;;;;;;;44.18;19.62;;;;;;;4.04;67.40;99132.69;2210428;81;20976;-66
2021/10/30 01:36:48;;;;;;;43.17;20.45;;;;;;;3.99;67.99;99126.77;2210283;81;20969;-66
2021/10/30 01:39:49;;;;;;;42.55;20.00;;;;;;;3.98;68.36;99127.23;2210435;81;20943;-66
2021/10/30 01:42:51;;;;;;;42.73;19.32;;;;;;;3.94;68.67;99123.48;2210274;81;21013;-66
2021/10/30 01:45:52;;;;;;;45.38;19.10;;;;;;;3.93;68.79;99125.66;2210181;81;21616;-66
2021/10/30 01:48:54;;;;;;;41.28;19.42;;;;;;;3.95;68.96;99126.45;2210397;81;21056;-66
2021/10/30 01:51:56;;;;;;;44.53;19.20;;;;;;;4.06;68.94;99128.30;2210188;81;21539;-66
2021/10/30 01:54:57;;;;;;;43.55;19.23;;;;;;;4.18;68.71;99128.83;2210484;81;20973;-66
2021/10/30 01:57:59;;;;;;;43.20;18.67;;;;;;;4.21;68.56;99126.13;2210516;81;21531;-65
2021/10/30 02:01:00;;;;;;;44.93;20.43;;;;;;;4.20;68.19;99128.35;2210757;81;20976;-65
2021/10/30 02:04:02;;;;;;;43.70;19.12;;;;;;;4.09;68.16;99124.30;2210430;81;21127;-66
2021/10/30 02:07:03;;;;;;;43.73;18.80;;;;;;;3.99;68.58;99121.16;2210513;81;20988;-66
2021/10/30 02:10:04;;;;;;;47.60;21.35;;;;;;;4.07;68.59;99117.02;2210448;81;20957;-66
2021/10/30 02:13:06;;;;;;;43.83;19.10;;;;;;;4.10;68.54;99111.73;2218607;80;22280;-66
2021/10/30 02:16:07;;;;;;;49.48;20.85;;;;;;;4.10;68.44;99108.30;2220706;80;21031;-66
2021/10/30 02:19:09;;;;;;;43.25;19.30;;;;;;;4.04;68.83;99096.78;2220762;80;21515;-66
2021/10/30 02:22:10;;;;;;;45.63;19.75;;;;;;;4.03;68.77;99097.23;2220859;80;21025;-65
2021/10/30 02:25:11;;;;;;;41.60;18.42;;;;;;;4.08;68.77;99096.66;2220741;80;21003;-66
2021/10/30 02:28:13;;;;;;;49.45;21.00;;;;;;;4.11;68.83;99093.97;2221007;80;20984;-65
2021/10/30 02:31:14;;;;;;;48.40;21.20;;;;;;;4.21;68.73;99096.27;2220735;80;20987;-66
2021/10/30 02:34:16;;;;;;;43.25;18.85;;;;;;;4.32;68.57;99096.80;2220704;80;21451;-66
2021/10/30 02:37:17;;;;;;;40.03;18.00;;;;;;;4.33;68.51;99085.06;2220691;80;21027;-65
2021/10/30 02:40:19;;;;;;;40.25;18.32;;;;;;;4.36;68.50;99089.78;2220752;80;21574;-66
2021/10/30 02:43:20;;;;;;;46.63;19.45;;;;;;;4.32;68.45;99090.30;2220847;80;21091;-66
2021/10/30 02:46:21;;;;;;;43.52;19.05;;;;;;;4.38;68.49;99093.16;2220726;80;21011;-66
2021/10/30 02:49:23;;;;;;;44.95;18.42;;;;;;;4.49;68.33;99089.78;2220527;80;21068;-66
2021/10/30 02:52:25;;;;;;;43.30;18.87;;;;;;;4.57;68.06;99096.02;2220729;80;20972;-65
2021/10/30 02:55:27;;;;;;;43.13;18.37;;;;;;;4.60;67.84;99086.84;2220949;80;21055;-66
2021/10/30 02:58:28;;;;;;;43.33;18.70;;;;;;;4.61;67.74;99087.23;2220752;80;21067;-65
2021/10/30 03:01:29;;;;;;;42.73;18.73;;;;;;;4.59;67.78;99089.04;2220707;80;21565;-66
2021/10/30 03:04:32;;;;;;;40.98;18.07;;;;;;;4.66;67.76;99088.78;2220597;80;20984;-66
2021/10/30 03:07:33;;;;;;;45.43;19.35;;;;;;;4.74;67.72;99091.15;2220757;80;21086;-66
2021/10/30 03:10:35;;;;;;;45.17;18.07;;;;;;;4.75;67.40;99094.13;2220602;80;21032;-66
2021/10/30 03:13:36;;;;;;;41.50;18.82;;;;;;;4.65;67.42;99095.33;2211358;80;21500;-66
2021/10/30 03:16:38;;;;;;;42.60;19.37;;;;;;;4.64;67.64;99096.22;2210211;81;21023;-66
2021/10/30 03:19:39;;;;;;;42.55;18.30;;;;;;;4.69;67.58;99106.86;2210320;81;21420;-66
2021/10/30 03:22:41;;;;;;;43.92;18.55;;;;;;;4.51;66.57;99107.45;2210501;81;21078;-66
2021/10/30 03:25:42;;;;;;;45.03;19.05;;;;;;;4.26;66.95;99106.92;2210274;81;20964;-66
2021/10/30 03:28:43;;;;;;;44.30;19.30;;;;;;;4.25;67.44;99104.38;2210407;81;21534;-66
2021/10/30 03:31:45;;;;;;;42.35;18.15;;;;;;;4.25;67.51;99104.38;2210292;81;20969;-66
2021/10/30 03:34:46;;;;;;;39.05;17.52;;;;;;;4.11;67.91;99103.06;2210175;81;21578;-66
2021/10/30 03:37:48;;;;;;;41.25;18.05;;;;;;;4.08;68.16;99098.39;2210404;81;21003;-66
2021/10/30 03:40:49;;;;;;;41.95;17.37;;;;;;;4.10;68.27;99092.27;2210292;81;20980;-66
2021/10/30 03:43:51;;;;;;;38.55;17.85;;;;;;;4.10;68.27;99097.91;2210348;81;21012;-66
2021/10/30 03:46:53;;;;;;;40.50;17.92;;;;;;;4.01;68.22;99089.09;2210431;81;21452;-66
2021/10/30 03:49:54;;;;;;;42.03;17.12;;;;;;;3.95;68.45;99097.48;2210552;81;20949;-66
2021/10/30 03:52:56;;;;;;;40.35;17.92;;;;;;;3.95;68.83;99095.31;2210277;81;20976;-65
2021/10/30 03:55:57;;;;;;;40.98;18.40;;;;;;;3.90;68.62;99094.61;2210485;81;20972;-66
2021/10/30 03:58:58;;;;;;;40.33;17.75;;;;;;;3.91;68.61;99096.33;2210269;81;20980;-65
2021/10/30 04:02:02;;;;;;;42.27;17.17;;;;;;;3.94;68.70;99093.63;2210358;81;21015;-66
2021/10/30 04:05:03;;;;;;;38.73;17.40;;;;;;;3.93;68.63;99095.36;2188791;81;20953;-66
2021/10/30 04:08:05;;;;;;;42.33;18.37;;;;;;;3.94;68.61;99091.04;2210392;81;20973;-66
2021/10/30 04:11:06;;;;;;;37.15;16.80;;;;;;;4.04;68.40;99089.86;2210508;81;20984;-66
2021/10/30 04:14:08;;;;;;;39.67;17.65;;;;;;;4.05;68.27;99090.70;2220263;80;21009;-66
2021/10/30 04:17:09;;;;;;;35.90;15.78;;;;;;;4.08;68.43;99086.70;2220325;80;21582;-66
2021/10/30 04:20:11;;;;;;;40.50;16.05;;;;;;;4.06;68.24;99082.03;2220794;80;21071;-66
2021/10/30 04:23:12;;;;;;;40.03;16.67;;;;;;;4.03;68.48;99084.72;2220754;80;21080;-65
2021/10/30 04:26:13;;;;;;;38.63;16.32;;;;;;;4.12;68.49;99084.00;2220602;80;21087;-66
2021/10/30 04:29:15;;;;;;;36.48;15.43;;;;;;;4.18;68.10;99085.98;2220413;80;21079;-66
2021/10/30 04:32:17;;;;;;;39.73;15.15;;;;;;;4.12;67.87;99084.00;2220575;80;21080;-66
2021/10/30 04:35:19;;;;;;;41.60;16.20;;;;;;;4.05;67.92;99085.52;2220588;80;21110;-66
2021/10/30 04:38:20;;;;;;;41.95;17.42;;;;;;;3.99;68.10;99087.41;2220783;80;21048;-66
2021/10/30 04:41:22;;;;;;;38.75;15.88;;;;;;;3.96;68.38;99089.23;2220519;80;21150;-66
2021/10/30 04:44:23;;;;;;;38.55;16.35;;;;;;;3.90;67.57;99092.02;2220687;80;20995;-66
2021/10/30 04:47:24;;;;;;;39.58;17.23;;;;;;;3.58;67.50;99092.51;2220492;80;21068;-66
2021/10/30 04:50:26;;;;;;;37.97;15.97;;;;;;;3.35;68.53;99089.23;2220887;80;21048;-66
2021/10/30 04:53:27;;;;;;;39.50;16.60;;;;;;;3.18;68.90;99079.34;2220485;80;21038;-66
2021/10/30 04:56:29;;;;;;;39.85;16.90;;;;;;;3.03;68.97;99074.97;2220608;80;21579;-66
2021/10/30 04:59:30;;;;;;;40.45;16.45;;;;;;;3.04;69.50;99068.03;2220638;80;21055;-66
2021/10/30 05:02:33;;;;;;;50.70;16.93;;;;;;;3.08;69.64;99069.20;2220713;80;21063;-66
2021/10/30 05:05:34;;;;;;;39.50;16.55;;;;;;;3.13;69.64;99062.59;2220820;80;21659;-66
2021/10/30 05:08:36;;;;;;;42.00;16.70;;;;;;;3.23;69.92;99063.20;2220482;80;21036;-66
2021/10/30 05:11:37;;;;;;;39.25;16.40;;;;;;;3.24;69.78;99067.04;2220510;80;21064;-67
2021/10/30 05:14:39;;;;;;;38.10;16.17;;;;;;;3.17;69.10;99067.26;2220384;80;21044;-66
2021/10/30 05:17:41;;;;;;;35.52;15.63;;;;;;;3.02;70.25;99066.78;2220494;80;21049;-66
2021/10/30 05:20:42;;;;;;;38.10;16.65;;;;;;;2.94;69.78;99063.10;2220738;80;21053;-66
2021/10/30 05:23:44;;;;;;;46.73;21.37;;;;;;;2.90;70.17;99070.97;2220666;80;21095;-66
2021/10/30 05:26:45;;;;;;;44.38;21.80;;;;;;;2.89;70.32;99071.88;2220407;80;21093;-66
2021/10/30 05:29:47;;;;;;;42.17;18.60;;;;;;;2.90;70.36;99075.73;2220478;80;21071;-66
2021/10/30 05:32:48;;;;;;;43.20;17.65;;;;;;;2.86;69.82;99077.12;2220486;80;21075;-66
2021/10/30 05:35:49;;;;;;;46.00;20.77;;;;;;;2.76;70.21;99075.23;2220412;80;21041;-66
2021/10/30 05:38:52;;;;;;;45.97;20.60;;;;;;;2.72;70.25;99081.38;2220373;80;21523;-66
2021/10/30 05:41:54;;;;;;;41.80;17.65;;;;;;;2.87;70.33;99081.42;2220466;80;21040;-66
2021/10/30 05:44:56;;;;;;;38.75;15.98;;;;;;;2.92;70.48;99077.83;2220500;80;21036;-66
2021/10/30 05:47:57;;;;;;;37.53;15.97;;;;;;;3.10;70.55;99078.23;2220712;80;21052;-66
2021/10/30 05:50:59;;;;;;;35.45;15.08;;;;;;;3.14;70.42;99076.42;2220583;80;21048;-66
2021/10/30 05:54:00;;;;;;;36.05;15.80;;;;;;;3.17;70.34;99071.14;2220321;80;21127;-66
2021/10/30 05:57:02;;;;;;;34.67;14.80;;;;;;;3.25;69.62;99082.17;2220449;80;21589;-66
2021/10/30 06:00:04;;;;;;;37.30;14.83;;;;;;;3.20;69.42;99081.43;2220584;80;21048;-66
2021/10/30 06:03:06;;;;;;;42.48;16.65;;;;;;;3.15;69.38;99087.17;2220534;80;21020;-66
2021/10/30 06:06:07;;;;;;;37.15;15.18;;;;;;;3.11;69.73;99085.95;2220360;80;21142;-65
2021/10/30 06:09:09;;;;;;;36.50;14.30;;;;;;;3.29;70.07;99088.98;2220552;80;21083;-66
2021/10/30 06:12:10;;;;;;;33.25;14.00;;;;;;;3.10;68.72;99092.06;2220364;80;21080;-66
2021/10/30 06:15:11;;;;;;;34.45;14.63;;;;;;;2.69;69.29;99097.84;2220863;80;21083;-66
2021/10/30 06:18:13;;;;;;;37.38;14.87;;;;;;;2.71;70.34;99096.05;2220811;80;20997;-65
2021/10/30 06:21:14;;;;;;;33.55;13.60;;;;;;;2.93;70.95;99091.19;2220602;80;21557;-66
2021/10/30 06:24:16;;;;;;;35.78;14.55;;;;;;;3.05;70.16;99092.61;2220748;80;21023;-65
2021/10/30 06:27:17;;;;;;;33.48;14.95;;;;;;;3.19;70.47;99092.25;2220793;80;21082;-65
2021/10/30 06:30:19;;;;;;;37.10;15.78;;;;;;;3.35;70.41;99084.04;2221037;80;21020;-65
2021/10/30 06:33:20;;;;;;;42.15;17.55;;;;;;;3.47;70.36;99084.55;2220827;80;20975;-66
2021/10/30 06:36:21;;;;;;;43.28;18.67;;;;;;;3.77;70.38;99078.55;2221073;80;20987;-66
2021/10/30 06:39:24;;;;;;;39.42;17.95;;;;;;;4.04;70.13;99079.91;2220876;80;21067;-65
2021/10/30 06:42:25;;;;;;;39.00;17.07;;;;;;;4.30;69.83;99086.45;2221197;80;20976;-65
2021/10/30 06:45:27;;;;;;;34.13;14.90;;;;;;;4.55;69.56;99084.84;2220965;80;20983;-65
2021/10/30 06:48:28;;;;;;;36.75;14.80;;;;;;;4.68;69.50;99084.40;2220894;80;21578;-65
2021/10/30 06:51:30;;;;;;;36.70;15.88;;;;;;;4.98;69.46;99099.02;2220967;80;21028;-65
2021/10/30 06:54:31;;;;;;;35.67;14.57;;;;;;;5.19;69.28;99094.37;2221163;80;21582;-65
2021/10/30 06:57:33;;;;;;;33.50;13.75;;;;;;;5.49;68.87;99092.91;2220965;80;21043;-65
2021/10/30 07:00:34;;;;;;;34.75;14.05;;;;;;;5.76;69.35;99094.55;2220926;80;21059;-65
2021/10/30 07:03:36;;;;;;;33.55;13.30;;;;;;;6.04;68.21;99092.63;2221014;80;20953;-65
2021/10/30 07:06:37;;;;;;;32.17;13.45;;;;;;;6.41;68.26;99086.46;2220921;80;20988;-65
2021/10/30 07:09:38;;;;;;;31.73;13.20;;;;;;;6.77;67.49;99095.00;2221072;80;21003;-65
2021/10/30 07:12:40;;;;;;;32.30;12.50;;;;;;;7.01;66.80;99089.23;2220988;80;21071;-65
2021/10/30 07:15:42;;;;;;;30.97;12.73;;;;;;;7.36;66.27;99084.72;2220430;80;21142;-65
2021/10/30 07:18:43;;;;;;;32.05;13.40;;;;;;;7.67;65.99;99089.44;2220596;80;21037;-65
2021/10/30 07:21:45;;;;;;;31.80;12.53;;;;;;;8.07;65.42;99095.42;2220832;80;20960;-65
2021/10/30 07:24:47;;;;;;;30.73;12.03;;;;;;;8.30;64.69;99091.75;2220793;80;21096;-65
2021/10/30 07:27:48;;;;;;;30.87;11.63;;;;;;;8.54;64.40;99091.52;2220824;80;21575;-65
2021/10/30 07:30:50;;;;;;;28.12;11.45;;;;;;;8.82;63.08;99096.70;2220816;80;21028;-65
2021/10/30 07:33:51;;;;;;;32.65;11.85;;;;;;;9.03;63.25;99096.57;2220561;80;21055;-64
2021/10/30 07:36:54;;;;;;;29.42;11.83;;;;;;;9.31;62.45;99089.45;2220350;80;21507;-65
2021/10/30 07:39:56;;;;;;;30.23;11.83;;;;;;;9.53;61.95;99090.50;2220559;80;21071;-65
2021/10/30 07:42:57;;;;;;;28.85;11.20;;;;;;;9.58;60.45;99085.84;2220770;80;21063;-65
2021/10/30 07:45:59;;;;;;;28.40;11.68;;;;;;;9.70;60.82;99090.45;2220787;80;21044;-65
2021/10/30 07:49:00;;;;;;;27.95;10.28;;;;;;;9.85;60.37;99081.39;2220537;80;21555;-65
2021/10/30 07:52:02;;;;;;;28.70;11.40;;;;;;;10.01;59.47;99085.33;2220815;80;21092;-65
2021/10/30 07:55:03;;;;;;;29.12;11.10;;;;;;;10.15;59.98;99084.58;2220765;80;21582;-65
2021/10/30 07:58:04;;;;;;;27.20;10.63;;;;;;;10.36;57.59;99091.29;2220663;80;21068;-65
2021/10/30 08:01:06;;;;;;;28.00;10.90;;;;;;;10.47;59.67;99087.21;2220768;80;21016;-65
2021/10/30 08:04:07;;;;;;;27.67;11.05;;;;;;;10.70;58.82;99084.14;2220464;80;21606;-65
2021/10/30 08:07:09;;;;;;;29.73;11.23;;;;;;;10.94;58.84;99084.13;2220745;80;21107;-65
2021/10/30 08:10:10;;;;;;;29.85;11.20;;;;;;;11.20;59.15;99078.16;2220437;80;21630;-65
2021/10/30 08:13:12;;;;;;;27.85;11.00;;;;;;;11.41;58.34;99077.35;2217716;80;21020;-65
2021/10/30 08:16:13;;;;;;;30.83;11.37;;;;;;;11.64;58.34;99081.68;2210478;81;21063;-65
2021/10/30 08:19:15;;;;;;;29.02;11.53;;;;;;;11.79;56.58;99075.48;2210621;81;20980;-65
2021/10/30 08:22:16;;;;;;;28.10;11.70;;;;;;;12.00;57.53;99065.91;2210230;81;20991;-64
2021/10/30 08:25:18;;;;;;;26.52;10.35;;;;;;;12.33;57.45;99070.44;2210230;81;21023;-65
2021/10/30 08:28:20;;;;;;;28.52;11.33;;;;;;;12.51;56.15;99064.45;2210156;81;21072;-65
2021/10/30 08:31:22;;;;;;;27.70;11.35;;;;;;;12.50;55.99;99070.19;2210494;81;21047;-65
2021/10/30 08:34:23;;;;;;;30.37;12.23;;;;;;;12.63;54.95;99071.06;2210451;81;21024;-65
2021/10/30 08:37:24;;;;;;;28.35;12.28;;;;;;;12.67;54.27;99068.23;2210401;81;21104;-65
2021/10/30 08:40:26;;;;;;;31.60;11.88;;;;;;;12.71;55.04;99063.14;2210510;81;21064;-65
2021/10/30 08:43:27;;;;;;;29.72;11.12;;;;;;;12.79;54.52;99056.42;2210420;81;21575;-65
2021/10/30 08:46:30;;;;;;;30.45;11.93;;;;;;;12.77;52.50;99060.09;2210040;81;21013;-65
2021/10/30 08:49:31;;;;;;;28.30;11.63;;;;;;;12.82;54.36;99061.47;2210812;81;21005;-65
2021/10/30 08:52:33;;;;;;;29.27;11.95;;;;;;;12.94;53.42;99057.20;2210707;81;20985;-65
2021/10/30 08:55:34;;;;;;;29.27;11.10;;;;;;;13.11;53.86;99052.09;2210681;81;20993;-65
2021/10/30 08:58:36;;;;;;;28.87;11.10;;;;;;;13.29;53.85;99044.73;2210684;81;20994;-65
2021/10/30 09:01:37;;;;;;;27.90;11.47;;;;;;;13.49;53.45;99045.19;2210689;81;21445;-65
2021/10/30 09:04:38;;;;;;;27.33;11.97;;;;;;;13.66;52.49;99040.03;2210646;81;21032;-65
2021/10/30 09:07:40;;;;;;;29.13;11.57;;;;;;;13.83;52.69;99044.12;2210358;81;21542;-65
2021/10/30 09:10:41;;;;;;;27.50;11.53;;;;;;;14.02;52.36;99037.91;2210792;81;21004;-65
2021/10/30 09:13:43;;;;;;;31.05;12.28;;;;;;;14.24;52.59;99045.59;2210537;80;21665;-65
2021/10/30 09:16:44;;;;;;;28.98;10.93;;;;;;;14.50;52.41;99041.03;2210936;81;20941;-65
2021/10/30 09:19:46;;;;;;;27.47;11.33;;;;;;;14.63;50.50;99042.31;2210673;81;21020;-65
2021/10/30 09:22:48;;;;;;;24.02;10.28;;;;;;;14.54;50.69;99048.26;2210172;81;21068;-65
2021/10/30 09:25:50;;;;;;;28.50;9.50;;;;;;;14.54;49.25;99044.30;2210436;81;21036;-65
2021/10/30 09:28:54;;;;;;;27.42;10.18;;;;;;;14.66;50.31;99046.53;2209970;81;21049;-66
2021/10/30 09:31:55;;;;;;;25.12;9.70;;;;;;;14.84;49.18;99044.30;2210305;81;21036;-65
2021/10/30 09:34:57;;;;;;;28.33;10.50;;;;;;;14.92;48.47;99032.69;2210309;81;21142;-65
2021/10/30 09:37:58;;;;;;;25.63;10.17;;;;;;;15.07;49.97;99032.02;2210080;81;21534;-65
2021/10/30 09:41:00;;;;;;;26.57;10.50;;;;;;;15.33;49.47;99031.32;2210423;81;21032;-65
2021/10/30 09:44:01;;;;;;;26.47;8.83;;;;;;;15.51;48.66;99034.81;2210360;81;21122;-65
2021/10/30 09:47:02;;;;;;;23.37;9.00;;;;;;;15.68;49.19;99030.84;2210553;80;21059;-65
2021/10/30 09:50:04;;;;;;;25.13;8.87;;;;;;;15.83;46.22;99029.67;2210442;81;21717;-65
2021/10/30 09:53:06;;;;;;;26.27;9.48;;;;;;;16.07;46.54;99032.63;2210255;81;21155;-65
2021/10/30 09:56:07;;;;;;;25.35;9.40;;;;;;;16.07;46.54;99032.63;2210428;81;21000;-65
2021/10/30 09:59:09;;;;;;;28.30;11.03;;;;;;;15.96;46.79;99028.67;2210393;81;21056;-65
2021/10/30 10:02:12;;;;;;;31.90;13.60;;;;;;;15.93;45.73;99027.97;2210223;81;21100;-65
2021/10/30 10:05:14;;;;;;;27.45;11.50;;;;;;;16.03;45.27;99020.60;2210099;81;21030;-65
2021/10/30 10:08:16;;;;;;;26.17;10.65;;;;;;;16.09;47.05;99018.78;2210272;81;21032;-65
2021/10/30 10:11:18;;;;;;;26.57;9.73;;;;;;;16.34;46.02;99011.52;2210652;81;21012;-65
2021/10/30 10:14:19;;;;;;;24.65;9.68;;;;;;;16.39;45.61;99009.31;2215291;80;21004;-65
2021/10/30 10:17:21;;;;;;;23.77;9.30;;;;;;;16.47;45.52;99006.05;2220408;80;21614;-65
2021/10/30 10:20:23;;;;;;;22.73;9.03;;;;;;;16.47;45.21;99008.70;2221037;80;21028;-65
2021/10/30 10:23:24;;;;;;;24.23;8.58;;;;;;;16.48;45.34;99007.24;2220746;80;20999;-65
2021/10/30 10:26:25;;;;;;;24.23;9.23;;;;;;;16.62;45.06;99000.31;2220703;80;21699;-65
2021/10/30 10:29:27;;;;;;;24.00;8.33;;;;;;;16.80;44.21;98993.95;2220940;80;20977;-65
2021/10/30 10:32:28;;;;;;;24.07;8.30;;;;;;;16.96;44.95;98996.66;2220787;80;21028;-65
2021/10/30 10:35:30;;;;;;;25.10;8.97;;;;;;;17.15;44.74;98990.62;2221127;80;21056;-65
2021/10/30 10:38:31;;;;;;;24.07;8.53;;;;;;;17.37;44.54;98983.47;2220879;80;21320;-65
2021/10/30 10:41:33;;;;;;;21.02;7.35;;;;;;;17.50;43.25;98977.47;2220768;80;21474;-65
2021/10/30 10:44:36;;;;;;;21.02;7.67;;;;;;;17.63;42.41;98973.26;2220656;80;21007;-65
2021/10/30 10:47:38;;;;;;;22.40;7.78;;;;;;;17.65;41.64;98969.47;2220759;80;20992;-65
2021/10/30 10:50:42;;;;;;;22.20;7.50;;;;;;;17.64;41.58;98965.16;2221102;80;21019;-65
2021/10/30 10:53:43;;;;;;;21.17;7.20;;;;;;;17.70;41.64;98957.63;2190386;80;21000;-65
2021/10/30 10:56:46;;;;;;;23.52;6.95;;;;;;;17.73;40.17;98963.52;2221011;80;20975;-65
2021/10/30 10:59:47;;;;;;;20.88;6.85;;;;;;;17.78;41.85;98964.42;2220737;80;20983;-66
2021/10/30 11:02:49;;;;;;;21.67;6.73;;;;;;;17.80;41.44;98962.45;2220804;80;21067;-65
2021/10/30 11:05:51;;;;;;;21.33;6.92;;;;;;;17.83;39.65;98956.41;2220648;80;21155;-66
2021/10/30 11:08:52;;;;;;;21.90;7.40;;;;;;;17.89;39.96;98941.76;2220729;80;21063;-66
2021/10/30 11:11:54;;;;;;;20.62;7.10;;;;;;;17.89;40.38;98947.06;2220680;80;21566;-65
2021/10/30 11:14:56;;;;;;;22.62;7.50;;;;;;;17.93;39.74;98941.87;2214538;80;21036;-66
2021/10/30 11:21:00;;;;;;;21.45;7.70;;;;;;;18.27;39.81;98945.43;2210258;81;21059;-65
2021/10/30 11:24:01;;;;;;;24.47;8.13;;;;;;;18.35;38.74;98938.11;2210596;81;21043;-65
2021/10/30 11:27:04;;;;;;;22.80;7.30;;;;;;;18.51;40.60;98942.34;2210441;80;21273;-65
2021/10/30 11:30:05;;;;;;;22.48;7.42;;;;;;;18.72;39.51;98930.73;2210434;81;20973;-65
2021/10/30 11:33:07;;;;;;;23.77;9.40;;;;;;;18.71;38.43;98934.36;2210401;80;20941;-66
2021/10/30 11:36:08;;;;;;;21.17;7.62;;;;;;;18.64;38.96;98931.92;2210373;81;21503;-65
2021/10/30 11:39:10;;;;;;;23.60;8.03;;;;;;;18.65;39.32;98929.13;2210041;81;20997;-65
2021/10/30 11:42:11;;;;;;;23.27;7.30;;;;;;;18.64;38.18;98926.11;2210343;81;21622;-66
2021/10/30 11:45:13;;;;;;;22.15;7.50;;;;;;;18.65;36.77;98920.33;2210161;81;21015;-65
2021/10/30 11:48:14;;;;;;;19.98;6.92;;;;;;;18.66;38.49;98923.31;2210354;81;20933;-66
2021/10/30 11:51:16;;;;;;;22.00;7.28;;;;;;;18.72;37.50;98924.56;2210489;81;20937;-65
2021/10/30 11:54:17;;;;;;;22.00;7.42;;;;;;;18.81;38.76;98923.71;2210345;81;20965;-65
2021/10/30 11:57:18;;;;;;;24.27;7.45;;;;;;;18.93;38.28;98920.42;2210496;81;21530;-65
2021/10/30 12:00:22;;;;;;;22.32;7.42;;;;;;;18.94;37.92;98921.59;2210363;81;20981;-66
2021/10/30 12:03:23;;;;;;;23.98;7.50;;;;;;;18.89;37.95;98923.02;2210424;80;21043;-65
2021/10/30 12:06:24;;;;;;;26.27;8.45;;;;;;;18.83;37.04;98922.59;2210628;81;21471;-65
2021/10/30 12:09:26;;;;;;;24.63;8.70;;;;;;;18.72;37.59;98914.79;2210839;81;20985;-66
2021/10/30 12:12:28;;;;;;;24.25;8.58;;;;;;;18.57;36.78;98922.34;2210498;81;21012;-65
2021/10/30 12:15:30;;;;;;;21.90;8.03;;;;;;;18.36;37.64;98919.88;2217538;80;21055;-65
2021/10/30 12:18:32;;;;;;;24.43;7.92;;;;;;;18.21;36.32;98911.48;2221213;80;21531;-66
2021/10/30 12:21:34;;;;;;;23.62;9.25;;;;;;;18.21;38.46;98918.63;2220898;80;21008;-67
2021/10/30 12:24:35;;;;;;;24.52;8.13;;;;;;;18.33;38.22;98912.17;2221018;80;21527;-67
2021/10/30 12:27:36;;;;;;;24.67;8.08;;;;;;;18.47;38.18;98909.58;2221335;80;21008;-66
2021/10/30 12:30:38;;;;;;;24.98;8.73;;;;;;;18.58;37.48;98905.95;2221126;80;20968;-66
2021/10/30 12:33:43;;;;;;;24.57;8.85;;;;;;;18.56;38.15;98904.76;2221028;80;21036;-66
2021/10/30 12:36:42;;;;;;;23.52;8.28;;;;;;;18.60;38.12;98899.98;2192886;80;21024;-66
2021/10/30 12:39:44;;;;;;;22.25;8.13;;;;;;;18.73;37.79;98906.31;2221032;80;21132;-65
2021/10/30 12:42:45;;;;;;;22.35;8.25;;;;;;;18.80;37.93;98902.93;2221152;80;20976;-66
2021/10/30 12:45:47;;;;;;;22.50;7.92;;;;;;;18.82;37.43;98902.78;2221063;80;21040;-66
2021/10/30 12:48:48;;;;;;;22.67;7.65;;;;;;;18.80;37.02;98904.25;2221103;80;21539;-67
2021/10/30 12:51:50;;;;;;;21.90;7.70;;;;;;;18.70;37.36;98895.02;2221077;80;21052;-66
2021/10/30 12:54:51;;;;;;;21.73;8.35;;;;;;;18.70;37.68;98891.50;2220996;80;21122;-66
2021/10/30 12:57:53;;;;;;;25.82;8.65;;;;;;;18.73;36.52;98890.38;2221077;80;21044;-67
2021/10/30 13:00:54;;;;;;;23.87;8.53;;;;;;;18.79;37.70;98897.76;2221096;80;21024;-66
2021/10/30 13:03:55;;;;;;;23.55;8.18;;;;;;;18.86;37.37;98894.87;2221018;80;21099;-66
2021/10/30 13:06:57;;;;;;;21.82;7.65;;;;;;;18.82;36.05;98892.16;2220790;80;21080;-66
2021/10/30 13:09:58;;;;;;;23.87;8.03;;;;;;;18.70;35.50;98888.84;2221045;80;21535;-66
2021/10/30 13:13:00;;;;;;;22.13;8.75;;;;;;;18.58;36.86;98886.84;2221041;80;21044;-65
2021/10/30 13:16:01;;;;;;;22.40;7.70;;;;;;;18.53;36.55;98883.30;2212613;80;21144;-65
2021/10/30 13:19:03;;;;;;;23.52;8.45;;;;;;;18.62;37.53;98876.76;2210431;81;20991;-66
2021/10/30 13:22:05;;;;;;;23.15;8.43;;;;;;;18.67;37.36;98870.03;2210213;81;21065;-66
2021/10/30 13:25:06;;;;;;;23.02;8.20;;;;;;;18.57;36.92;98869.23;2210359;81;20995;-66
2021/10/30 13:28:08;;;;;;;24.45;8.50;;;;;;;18.54;36.85;98874.83;2210438;81;21098;-66
2021/10/30 13:31:09;;;;;;;23.70;8.70;;;;;;;18.44;37.33;98869.53;2210565;81;20977;-65
2021/10/30 13:34:11;;;;;;;23.52;8.63;;;;;;;18.39;37.21;98867.81;2210174;81;21068;-66
2021/10/30 13:37:12;;;;;;;22.48;8.65;;;;;;;18.37;37.65;98860.97;2210581;80;20980;-67
2021/10/30 13:40:14;;;;;;;24.75;9.55;;;;;;;18.40;37.56;98857.52;2210391;81;21009;-67
2021/10/30 13:43:16;;;;;;;25.02;9.35;;;;;;;18.42;38.17;98856.05;2210386;80;20992;-67
2021/10/30 13:46:19;;;;;;;29.18;10.05;;;;;;;18.46;37.69;98852.98;2210817;81;20961;-66
2021/10/30 13:49:21;;;;;;;26.68;10.20;;;;;;;18.43;37.76;98861.72;2210473;81;21084;-66
2021/10/30 13:52:22;;;;;;;25.50;9.68;;;;;;;18.42;37.98;98864.02;2210633;81;20945;-66
2021/10/30 13:55:24;;;;;;;24.57;8.75;;;;;;;18.44;37.18;98862.89;2210718;81;20976;-66
2021/10/30 13:58:26;;;;;;;;;;;;;;;18.33;37.97;98861.25;2213168;80;21024;-66
2021/10/30 14:01:27;;;;;;;26.15;9.50;;;;;;;18.25;37.21;98867.76;2210467;80;20145;-67
2021/10/30 14:04:29;;;;;;;24.50;9.87;;;;;;;18.15;37.92;98864.28;2210691;81;20996;-66
2021/10/30 14:07:32;;;;;;;25.02;9.30;;;;;;;18.00;37.82;98865.17;2210612;81;21291;-67